Time;durP1;ratioP1;P1;durP2;ratioP2;P2;SDS_P1;SDS_P2;PMS_P1;PMS_P2;Temp;Humidity;BMP_temperature;BMP_pressure;BME280_temperature;BME280_humidity;BME280_pressure;Samples;Min_cycle;Max_cycle;Signal;HPM_P1;HPM_P2
2024/01/09 00:00:47;;;;;;;9.45;3.90;;;-2.90;99.90;;;;;;5058664;28;20537;-70
2024/01/09 00:03:13;;;;;;;8.38;4.20;;;-2.90;99.90;;;;;;5058670;28;20040;-71
2024/01/09 00:05:38;;;;;;;9.48;4.10;;;-3.00;99.90;;;;;;5058602;28;20043;-70
2024/01/09 00:08:04;;;;;;;8.02;3.95;;;-3.00;99.90;;;;;;5058599;28;20127;-71
2024/01/09 00:10:30;;;;;;;7.88;3.88;;;-3.00;99.90;;;;;;5075170;28;20052;-70
2024/01/09 00:12:57;;;;;;;8.75;3.95;;;-3.10;99.90;;;;;;5058546;28;20036;-70
2024/01/09 00:15:23;;;;;;;7.72;3.80;;;-3.10;99.90;;;;;;5059375;28;20039;-70
2024/01/09 00:17:49;;;;;;;9.07;3.95;;;-3.10;99.90;;;;;;5058371;28;20181;-70
2024/01/09 00:20:16;;;;;;;8.02;3.72;;;-3.10;99.90;;;;;;5075220;28;20035;-70
2024/01/09 00:22:42;;;;;;;7.07;3.40;;;-3.20;99.90;;;;;;5074864;28;20557;-70
2024/01/09 00:25:08;;;;;;;7.90;3.53;;;-3.20;99.90;;;;;;5041650;28;20082;-70
2024/01/09 00:27:35;;;;;;;9.80;3.83;;;-3.20;99.90;;;;;;5058218;28;20121;-70
2024/01/09 00:30:01;;;;;;;7.60;3.90;;;-3.20;99.90;;;;;;5074941;28;20043;-70
2024/01/09 00:32:27;;;;;;;8.77;3.90;;;-3.20;99.90;;;;;;5057728;28;20044;-70
2024/01/09 00:34:53;;;;;;;8.50;3.50;;;-3.30;99.90;;;;;;5058457;28;20044;-70
2024/01/09 00:37:19;;;;;;;8.38;3.53;;;-3.30;99.90;;;;;;5041936;28;20056;-70
2024/01/09 00:39:45;;;;;;;8.60;3.70;;;-3.30;99.90;;;;;;5058152;28;20048;-70
2024/01/09 00:42:11;;;;;;;7.38;3.33;;;-3.30;99.90;;;;;;5057595;28;20082;-70
2024/01/09 00:44:36;;;;;;;7.25;3.50;;;-3.30;99.90;;;;;;5041273;28;20046;-70
2024/01/09 00:47:02;;;;;;;6.30;2.97;;;-3.30;99.90;;;;;;5074598;28;20036;-70
2024/01/09 00:49:28;;;;;;;7.43;3.33;;;-3.30;99.90;;;;;;5041555;28;20032;-70
2024/01/09 00:51:54;;;;;;;7.90;3.67;;;-3.40;99.90;;;;;;5074762;28;20097;-70
2024/01/09 00:54:20;;;;;;;7.15;3.40;;;-3.40;99.90;;;;;;5057945;28;20040;-69
2024/01/09 00:56:46;;;;;;;9.23;4.07;;;-3.40;99.90;;;;;;5057890;28;20404;-70
2024/01/09 00:59:12;;;;;;;6.15;3.03;;;-3.40;99.90;;;;;;5074711;28;20088;-70
2024/01/09 01:01:38;;;;;;;6.65;3.17;;;-3.40;99.90;;;;;;5074479;28;20048;-70
2024/01/09 01:04:04;;;;;;;8.90;3.55;;;-3.40;99.90;;;;;;5057839;28;20040;-70
2024/01/09 01:06:30;;;;;;;7.65;3.65;;;-3.40;99.90;;;;;;5074564;28;20135;-69
2024/01/09 01:08:55;;;;;;;7.03;3.72;;;-3.50;99.90;;;;;;5069112;28;20049;-69
2024/01/09 01:11:21;;;;;;;7.28;3.55;;;-3.40;99.90;;;;;;5054666;28;20040;-70
2024/01/09 01:13:47;;;;;;;7.13;3.38;;;-3.50;99.90;;;;;;5037813;28;20047;-70
2024/01/09 01:16:13;;;;;;;7.80;3.78;;;-3.50;99.90;;;;;;5054552;28;20511;-70
2024/01/09 01:18:39;;;;;;;7.30;3.20;;;-3.50;99.90;;;;;;5037822;28;20127;-69
2024/01/09 01:21:04;;;;;;;8.07;3.60;;;-3.50;99.90;;;;;;5038007;28;20503;-68
2024/01/09 01:23:30;;;;;;;7.97;3.50;;;-3.50;99.90;;;;;;5054235;28;20036;-68
2024/01/09 01:25:56;;;;;;;6.85;3.00;;;-3.50;99.90;;;;;;5037768;28;20082;-69
2024/01/09 01:28:22;;;;;;;6.38;3.30;;;-3.50;99.90;;;;;;5071211;28;20041;-68
2024/01/09 01:30:47;;;;;;;7.43;3.00;;;-3.60;99.90;;;;;;5054079;28;20120;-68
2024/01/09 01:33:13;;;;;;;6.63;2.90;;;-3.50;99.90;;;;;;5037985;28;20048;-68
2024/01/09 01:35:39;;;;;;;7.05;3.60;;;-3.60;99.90;;;;;;5054103;28;20132;-68
2024/01/09 01:38:04;;;;;;;7.80;3.70;;;-3.60;99.90;;;;;;5070846;28;20123;-68
2024/01/09 01:40:30;;;;;;;8.07;3.97;;;-3.60;99.90;;;;;;5037628;28;20040;-68
2024/01/09 01:42:57;;;;;;;7.88;3.55;;;-3.70;99.90;;;;;;5054632;28;20041;-68
2024/01/09 01:45:24;;;;;;;7.18;3.10;;;-3.70;99.90;;;;;;5074679;28;20036;-68
2024/01/09 01:47:51;;;;;;;8.43;3.90;;;-3.70;99.90;;;;;;5058007;28;20036;-68
2024/01/09 01:50:17;;;;;;;8.02;3.15;;;-3.60;99.90;;;;;;5041590;28;20041;-69
2024/01/09 01:52:45;;;;;;;7.03;3.10;;;-3.70;99.90;;;;;;5057646;28;20041;-69
2024/01/09 01:55:12;;;;;;;6.90;3.10;;;-3.60;99.90;;;;;;5057749;28;20043;-68
2024/01/09 01:57:40;;;;;;;6.63;3.22;;;-3.60;99.90;;;;;;5057542;28;20044;-68
2024/01/09 02:00:07;;;;;;;6.53;3.10;;;-3.70;99.90;;;;;;5057571;28;20044;-68
2024/01/09 02:02:35;;;;;;;7.68;3.40;;;-3.80;99.90;;;;;;5057390;28;20052;-68
2024/01/09 02:05:02;;;;;;;6.68;3.30;;;-3.80;99.90;;;;;;5057473;28;20045;-68
2024/01/09 02:07:33;;;;;;;9.45;3.42;;;-3.80;99.90;;;;;;5024846;28;20047;-68
2024/01/09 02:09:58;;;;;;;7.32;3.17;;;-3.80;99.90;;;;;;5071247;28;20044;-68
2024/01/09 02:12:25;;;;;;;7.75;3.13;;;-3.80;99.90;;;;;;5060748;28;20051;-68
2024/01/09 02:14:51;;;;;;;7.00;3.17;;;-3.80;99.90;;;;;;5077785;28;20046;-68
2024/01/09 02:17:16;;;;;;;6.65;3.25;;;-3.80;99.90;;;;;;5060654;28;20040;-68
2024/01/09 02:19:42;;;;;;;8.32;3.17;;;-3.80;99.90;;;;;;5077792;28;20047;-68
2024/01/09 02:22:08;;;;;;;7.20;3.45;;;-3.90;99.90;;;;;;5077293;28;20097;-68
2024/01/09 02:24:33;;;;;;;7.88;4.10;;;-3.80;99.90;;;;;;5077429;28;20044;-68
2024/01/09 02:27:25;;;;;;;7.95;3.05;;;-3.90;99.90;;;;;;5044213;28;20082;-68
2024/01/09 02:29:51;;;;;;;7.03;3.40;;;-3.90;99.90;;;;;;5060550;28;20170;-68
2024/01/09 02:32:19;;;;;;;7.88;3.08;;;-3.90;99.90;;;;;;5060554;28;20498;-68
2024/01/09 02:34:46;;;;;;;9.00;3.67;;;-3.90;99.90;;;;;;5043570;28;20043;-68
2024/01/09 02:37:12;;;;;;;7.60;3.30;;;-4.00;99.90;;;;;;5077099;28;20044;-68
2024/01/09 02:39:38;;;;;;;7.88;3.47;;;-4.00;99.90;;;;;;5043755;28;20040;-68
2024/01/09 02:42:04;;;;;;;6.45;3.00;;;-4.10;99.90;;;;;;5076956;28;20055;-68
2024/01/09 02:44:30;;;;;;;9.07;3.55;;;-4.10;99.90;;;;;;5077115;28;20089;-68
2024/01/09 02:46:56;;;;;;;7.88;3.47;;;-4.10;99.90;;;;;;5060024;28;20044;-68
2024/01/09 02:49:22;;;;;;;8.13;3.30;;;-4.10;99.90;;;;;;5076502;28;20097;-68
2024/01/09 02:51:47;;;;;;;7.30;3.20;;;-4.10;99.90;;;;;;5060001;28;20557;-68
2024/01/09 02:54:13;;;;;;;8.50;3.53;;;-4.10;99.90;;;;;;5042880;28;20488;-68
2024/01/09 02:56:39;;;;;;;7.40;3.20;;;-4.10;99.90;;;;;;5060144;28;20044;-68
2024/01/09 02:59:05;;;;;;;9.00;3.70;;;-4.10;99.90;;;;;;5076779;28;20044;-68
2024/01/09 03:01:32;;;;;;;7.40;3.60;;;-4.10;99.90;;;;;;5076780;28;20079;-68
2024/01/09 03:03:57;;;;;;;8.45;3.20;;;-4.10;99.90;;;;;;5043276;28;20040;-68
2024/01/09 03:06:23;;;;;;;7.88;3.10;;;-4.10;99.90;;;;;;5059886;28;20062;-68
2024/01/09 03:08:49;;;;;;;8.27;3.50;;;-4.10;99.90;;;;;;5076157;28;20080;-68
2024/01/09 03:11:15;;;;;;;6.78;3.08;;;-4.10;99.90;;;;;;5076361;28;20048;-68
2024/01/09 03:13:41;;;;;;;7.72;3.40;;;-4.20;99.90;;;;;;5076177;28;20050;-68
2024/01/09 03:16:13;;;;;;;8.20;3.25;;;-4.10;99.90;;;;;;5076274;28;20114;-68
2024/01/09 03:18:43;;;;;;;7.18;3.58;;;-4.10;99.90;;;;;;5059331;28;20080;-68
2024/01/09 03:21:12;;;;;;;7.72;3.40;;;-4.20;99.90;;;;;;5059593;28;20066;-68
2024/01/09 03:23:38;;;;;;;6.13;2.92;;;-4.20;99.90;;;;;;5059446;28;20123;-68
2024/01/09 03:26:03;;;;;;;6.45;3.13;;;-4.20;99.90;;;;;;5059285;28;20463;-68
2024/01/09 03:28:29;;;;;;;7.03;3.65;;;-4.20;99.90;;;;;;5075994;28;20091;-68
2024/01/09 03:30:55;;;;;;;7.43;3.10;;;-4.30;99.90;;;;;;5059558;28;20036;-68
2024/01/09 03:33:21;;;;;;;7.38;3.20;;;-4.20;99.90;;;;;;5075885;28;20051;-68
2024/01/09 03:35:47;;;;;;;6.20;3.10;;;-4.30;99.90;;;;;;5059648;28;20134;-68
2024/01/09 03:38:13;;;;;;;7.43;3.20;;;-4.20;99.90;;;;;;5059453;28;20055;-68
2024/01/09 03:40:39;;;;;;;7.30;3.17;;;-4.30;99.90;;;;;;5075606;28;20044;-68
2024/01/09 03:43:07;;;;;;;7.28;3.47;;;-4.30;99.90;;;;;;5059144;28;20544;-68
2024/01/09 03:45:33;;;;;;;8.00;2.67;;;-4.30;99.90;;;;;;5059510;28;20048;-68
2024/01/09 03:47:59;;;;;;;7.32;3.10;;;-4.30;99.90;;;;;;5059070;28;20595;-68
2024/01/09 03:50:25;;;;;;;4.85;2.13;;;-4.40;99.90;;;;;;5058782;28;20039;-68
2024/01/09 03:52:51;;;;;;;5.72;2.53;;;-4.30;99.90;;;;;;5042084;28;20511;-68
2024/01/09 03:55:16;;;;;;;7.85;3.03;;;-4.30;99.90;;;;;;5075268;28;20048;-68
2024/01/09 03:57:43;;;;;;;7.72;3.15;;;-4.40;99.90;;;;;;5058854;28;20039;-68
2024/01/09 04:00:09;;;;;;;6.70;3.40;;;-4.30;99.90;;;;;;5075304;28;20105;-68
2024/01/09 04:02:35;;;;;;;7.20;3.42;;;-4.40;99.90;;;;;;5041822;28;20094;-68
2024/01/09 04:05:01;;;;;;;6.03;2.10;;;-4.40;99.90;;;;;;5058406;28;20044;-68
2024/01/09 04:07:27;;;;;;;6.43;2.92;;;-4.40;99.90;;;;;;5041599;28;20071;-68
2024/01/09 04:09:53;;;;;;;8.73;3.60;;;-4.30;99.90;;;;;;5058514;28;20098;-68
2024/01/09 04:12:19;;;;;;;7.63;3.42;;;-4.40;99.90;;;;;;5075025;28;20039;-68
2024/01/09 04:14:45;;;;;;;7.40;3.60;;;-4.40;99.90;;;;;;5075128;28;20047;-68
2024/01/09 04:17:11;;;;;;;6.80;2.97;;;-4.40;99.90;;;;;;5058510;28;20051;-68
2024/01/09 04:19:38;;;;;;;8.05;3.10;;;-4.40;99.90;;;;;;5075109;28;20080;-68
2024/01/09 04:22:04;;;;;;;8.02;3.63;;;-4.40;99.90;;;;;;5042007;28;20435;-68
2024/01/09 04:24:31;;;;;;;8.18;3.28;;;-4.50;99.90;;;;;;5058619;28;20043;-68
2024/01/09 04:26:57;;;;;;;7.82;3.25;;;-4.50;99.90;;;;;;5074777;28;20044;-68
2024/01/09 04:29:23;;;;;;;7.47;3.33;;;-4.50;99.90;;;;;;5058785;28;20047;-68
2024/01/09 04:31:49;;;;;;;7.18;3.45;;;-4.40;99.90;;;;;;5058409;28;20048;-68
2024/01/09 04:34:14;;;;;;;7.13;3.50;;;-4.40;99.90;;;;;;5074876;28;20067;-68
2024/01/09 04:36:40;;;;;;;7.43;3.35;;;-4.50;99.90;;;;;;5058134;28;20096;-68
2024/01/09 04:39:06;;;;;;;7.45;3.60;;;-4.50;99.90;;;;;;5075194;28;20147;-68
2024/01/09 04:41:31;;;;;;;9.02;3.97;;;-4.50;99.90;;;;;;5058101;28;20044;-68
2024/01/09 04:43:57;;;;;;;7.80;3.70;;;-4.50;99.90;;;;;;5058105;28;20085;-68
2024/01/09 04:46:23;;;;;;;7.30;3.60;;;-4.60;99.90;;;;;;5041722;28;20521;-68
2024/01/09 04:48:49;;;;;;;7.18;3.75;;;-4.60;99.90;;;;;;5074941;28;20047;-68
2024/01/09 04:51:15;;;;;;;6.38;2.83;;;-4.60;99.90;;;;;;5074795;28;20128;-68
2024/01/09 04:53:40;;;;;;;7.18;3.38;;;-4.50;99.90;;;;;;5057654;28;20211;-68
2024/01/09 04:56:07;;;;;;;3.97;2.08;;;-4.60;99.90;;;;;;5074842;28;20126;-68
2024/01/09 04:58:32;;;;;;;7.40;3.47;;;-4.50;99.90;;;;;;5074673;28;20128;-68
2024/01/09 05:00:58;;;;;;;6.80;3.60;;;-4.60;99.90;;;;;;5041239;28;20072;-68
2024/01/09 05:03:24;;;;;;;7.55;3.88;;;-4.60;99.90;;;;;;5057883;28;20122;-68
2024/01/09 05:05:50;;;;;;;7.18;3.20;;;-4.70;99.90;;;;;;5041187;28;20032;-68
2024/01/09 05:08:16;;;;;;;8.00;3.40;;;-4.70;99.90;;;;;;5041517;28;20071;-68
2024/01/09 05:10:44;;;;;;;7.50;3.45;;;-4.60;99.90;;;;;;5054942;28;20078;-68
2024/01/09 05:13:09;;;;;;;8.55;3.70;;;-4.70;99.90;;;;;;5054335;28;20098;-68
2024/01/09 05:15:35;;;;;;;8.05;3.60;;;-4.40;99.90;;;;;;5021348;28;20455;-68
2024/01/09 05:18:01;;;;;;;6.35;3.20;;;-4.70;99.90;;;;;;5073802;28;20044;-68
2024/01/09 05:20:27;;;;;;;7.53;3.55;;;-4.70;99.90;;;;;;5025507;28;20036;-68
2024/01/09 05:22:54;;;;;;;8.57;3.88;;;-4.80;99.90;;;;;;5074940;28;20052;-68
2024/01/09 05:25:20;;;;;;;7.47;3.55;;;-4.80;99.90;;;;;;5075367;28;20048;-68
2024/01/09 05:27:45;;;;;;;7.07;3.33;;;-4.80;99.90;;;;;;5075578;28;20051;-68
2024/01/09 05:30:12;;;;;;;7.55;3.67;;;-4.80;99.90;;;;;;5074799;28;20041;-68
2024/01/09 05:32:37;;;;;;;7.45;3.58;;;-4.80;99.90;;;;;;5058160;28;20044;-68
2024/01/09 05:35:04;;;;;;;8.27;4.55;;;-4.80;99.90;;;;;;5041421;28;20093;-68
2024/01/09 05:37:29;;;;;;;9.55;5.03;;;-4.80;99.90;;;;;;5058011;28;20048;-68
2024/01/09 05:39:56;;;;;;;10.90;5.28;;;-4.80;99.90;;;;;;5074723;28;20052;-68
2024/01/09 05:42:21;;;;;;;20.20;10.25;;;-4.90;99.90;;;;;;5041295;28;20413;-68
2024/01/09 05:44:47;;;;;;;18.58;9.60;;;-4.90;99.90;;;;;;5074463;28;20043;-68
2024/01/09 05:47:13;;;;;;;16.90;8.32;;;-4.90;99.90;;;;;;5041409;28;20041;-68
2024/01/09 05:49:39;;;;;;;23.40;10.73;;;-4.90;99.90;;;;;;5041360;28;20416;-69
2024/01/09 05:52:04;;;;;;;9.85;5.13;;;-5.00;99.90;;;;;;5024727;28;20072;-69
2024/01/09 05:54:30;;;;;;;7.90;4.45;;;-5.00;99.90;;;;;;5041160;28;20036;-69
2024/01/09 05:56:56;;;;;;;7.80;2.85;;;-5.00;99.90;;;;;;5074354;28;20050;-69
2024/01/09 05:59:22;;;;;;;7.68;4.22;;;-5.00;99.90;;;;;;5041035;28;20045;-69
2024/01/09 06:01:47;;;;;;;8.98;4.13;;;-5.00;99.90;;;;;;5074518;28;20098;-69
2024/01/09 06:04:13;;;;;;;10.07;5.00;;;-5.00;99.90;;;;;;5074463;28;20039;-69
2024/01/09 06:06:39;;;;;;;8.43;4.47;;;-4.90;99.90;;;;;;5074102;28;20051;-69
2024/01/09 06:09:05;;;;;;;7.70;3.92;;;-5.00;99.90;;;;;;5080529;28;20052;-69
2024/01/09 06:11:31;;;;;;;8.30;3.90;;;-5.00;99.90;;;;;;5077323;28;20532;-69
2024/01/09 06:13:57;;;;;;;9.38;4.47;;;-5.00;99.90;;;;;;5077775;28;20126;-69
2024/01/09 06:16:23;;;;;;;7.95;4.20;;;-5.00;99.90;;;;;;5077416;28;20048;-69
2024/01/09 06:18:49;;;;;;;8.30;4.40;;;-5.10;99.90;;;;;;5060694;28;20040;-69
2024/01/09 06:21:15;;;;;;;6.15;2.45;;;-5.00;99.90;;;;;;5060578;28;20085;-69
2024/01/09 06:23:40;;;;;;;8.10;3.55;;;-5.00;99.90;;;;;;5044004;28;20458;-69
2024/01/09 06:26:06;;;;;;;9.43;4.32;;;-5.00;99.90;;;;;;5077249;28;20036;-69
2024/01/09 06:28:33;;;;;;;8.05;4.38;;;-5.00;99.90;;;;;;5076429;28;20062;-69
2024/01/09 06:30:59;;;;;;;9.75;4.88;;;-5.10;99.90;;;;;;5077345;28;20090;-69
2024/01/09 06:33:26;;;;;;;9.27;4.95;;;-5.10;99.90;;;;;;5077330;28;20126;-69
2024/01/09 06:35:52;;;;;;;14.45;7.25;;;-5.10;99.90;;;;;;5077348;28;20434;-69
2024/01/09 06:38:18;;;;;;;8.80;4.72;;;-5.10;99.90;;;;;;5077054;28;20105;-69
2024/01/09 06:40:44;;;;;;;8.00;4.28;;;-5.10;99.90;;;;;;5076850;28;20059;-69
2024/01/09 06:43:10;;;;;;;7.80;3.95;;;-5.10;99.90;;;;;;5077241;28;20040;-69
2024/01/09 06:45:36;;;;;;;9.02;4.20;;;-5.20;99.90;;;;;;5043864;28;20484;-69
2024/01/09 06:48:02;;;;;;;9.07;4.15;;;-5.20;99.90;;;;;;5060335;28;20036;-69
2024/01/09 06:50:28;;;;;;;9.05;4.38;;;-5.20;99.90;;;;;;5076853;28;20079;-69
2024/01/09 06:52:53;;;;;;;8.68;4.35;;;-5.20;99.90;;;;;;5060087;28;20336;-69
2024/01/09 06:55:20;;;;;;;9.15;4.55;;;-5.30;99.90;;;;;;5076991;28;20043;-69
2024/01/09 06:57:45;;;;;;;9.32;4.32;;;-5.20;99.90;;;;;;5076890;28;20048;-69
2024/01/09 07:00:12;;;;;;;8.52;4.00;;;-5.30;99.90;;;;;;5060015;28;20047;-68
2024/01/09 07:02:38;;;;;;;9.20;4.22;;;-5.20;99.90;;;;;;5059812;28;20040;-68
2024/01/09 07:05:05;;;;;;;8.60;3.95;;;-5.30;99.90;;;;;;5076637;28;20036;-68
2024/01/09 07:07:30;;;;;;;9.20;4.28;;;-5.30;99.90;;;;;;5076408;28;20040;-68
2024/01/09 07:09:56;;;;;;;7.72;3.92;;;-5.20;99.90;;;;;;5056234;28;20053;-68
2024/01/09 07:12:22;;;;;;;8.82;4.10;;;-5.20;99.90;;;;;;5056300;28;20040;-68
2024/01/09 07:14:48;;;;;;;8.05;4.03;;;-5.20;99.90;;;;;;5056351;28;20036;-68
2024/01/09 07:17:14;;;;;;;8.02;3.50;;;-5.20;99.90;;;;;;5056217;28;20040;-68
2024/01/09 07:19:40;;;;;;;6.80;3.45;;;-5.20;99.90;;;;;;5040005;28;20526;-68
2024/01/09 07:22:06;;;;;;;7.78;3.97;;;-5.20;99.90;;;;;;5056107;28;20040;-68
2024/01/09 07:24:32;;;;;;;8.40;4.22;;;-5.20;99.90;;;;;;5056256;28;20096;-68
2024/01/09 07:26:57;;;;;;;8.82;4.30;;;-5.20;99.90;;;;;;5032752;28;20088;-68
2024/01/09 07:29:23;;;;;;;9.25;4.15;;;-5.20;99.90;;;;;;5039396;28;20071;-68
2024/01/09 07:31:49;;;;;;;9.35;4.20;;;-5.20;99.90;;;;;;5039623;28;20046;-68
2024/01/09 07:34:15;;;;;;;9.77;3.85;;;-5.20;99.90;;;;;;5073782;28;20063;-68
2024/01/09 07:36:42;;;;;;;7.50;3.83;;;-5.20;99.90;;;;;;5055942;28;20036;-68
2024/01/09 07:39:09;;;;;;;9.13;3.92;;;-5.20;99.90;;;;;;5023728;28;20419;-68
2024/01/09 07:41:36;;;;;;;8.38;4.00;;;-5.20;99.90;;;;;;5054201;28;20044;-68
2024/01/09 07:44:02;;;;;;;8.95;4.05;;;-5.20;99.90;;;;;;5038803;28;20033;-68
2024/01/09 07:46:29;;;;;;;7.88;3.67;;;-5.20;99.90;;;;;;5056049;28;20131;-68
2024/01/09 07:48:54;;;;;;;8.00;3.50;;;-5.20;99.90;;;;;;5055534;28;20075;-68
2024/01/09 07:51:20;;;;;;;8.20;3.83;;;-5.20;99.90;;;;;;5073596;28;20039;-68
2024/01/09 07:53:46;;;;;;;6.93;3.03;;;-5.20;99.90;;;;;;5055786;28;20108;-68
2024/01/09 07:56:16;;;;;;;8.25;4.13;;;-5.20;99.90;;;;;;5055527;28;20044;-68
2024/01/09 07:58:42;;;;;;;7.57;4.07;;;-5.20;99.90;;;;;;5038358;28;20048;-68
2024/01/09 08:01:09;;;;;;;8.23;3.60;;;-5.20;99.90;;;;;;5055799;28;20040;-68
2024/01/09 08:03:34;;;;;;;7.55;3.67;;;-5.20;99.90;;;;;;5038712;28;20090;-68
2024/01/09 08:06:00;;;;;;;11.23;4.55;;;-5.00;99.90;;;;;;5055256;28;20040;-68
2024/01/09 08:08:26;;;;;;;9.32;4.18;;;-4.90;99.90;;;;;;5038772;28;20040;-66
2024/01/09 08:10:51;;;;;;;7.70;3.33;;;-4.90;99.90;;;;;;5039034;28;20098;-67
2024/01/09 08:13:17;;;;;;;8.23;3.95;;;-4.70;99.90;;;;;;5055502;28;20048;-67
2024/01/09 08:15:43;;;;;;;8.07;3.85;;;-4.60;99.90;;;;;;5038469;28;20075;-67
2024/01/09 08:18:09;;;;;;;9.13;4.38;;;-4.50;99.90;;;;;;5055083;28;20075;-67
2024/01/09 08:20:35;;;;;;;8.05;3.83;;;-4.40;99.90;;;;;;5055101;28;20044;-67
2024/01/09 08:23:01;;;;;;;7.97;3.60;;;-4.40;99.90;;;;;;5054919;28;20090;-67
2024/01/09 08:25:26;;;;;;;7.88;3.72;;;-4.40;99.90;;;;;;5054925;28;20123;-66
2024/01/09 08:27:52;;;;;;;7.78;4.25;;;-4.40;99.90;;;;;;5038386;28;20047;-67
2024/01/09 08:30:18;;;;;;;6.68;3.40;;;-4.40;99.90;;;;;;5054919;28;20037;-67
2024/01/09 08:32:44;;;;;;;8.38;3.70;;;-4.30;99.90;;;;;;5037900;28;20126;-67
2024/01/09 08:35:09;;;;;;;7.75;3.60;;;-4.30;99.90;;;;;;5037749;28;20044;-67
2024/01/09 08:37:35;;;;;;;8.25;4.40;;;-4.20;99.90;;;;;;5038169;28;20040;-67
2024/01/09 08:40:02;;;;;;;9.20;3.97;;;-4.10;99.90;;;;;;5038187;28;20093;-67
2024/01/09 08:42:27;;;;;;;8.02;4.00;;;-4.10;99.90;;;;;;5054965;28;20120;-67
2024/01/09 08:44:53;;;;;;;8.02;4.05;;;-4.00;99.90;;;;;;5055071;28;20080;-67
2024/01/09 08:47:19;;;;;;;7.78;3.60;;;-3.90;99.90;;;;;;5054983;28;20047;-68
2024/01/09 08:49:45;;;;;;;6.28;2.83;;;-3.70;99.90;;;;;;5054478;28;20040;-67
2024/01/09 08:52:11;;;;;;;5.03;2.22;;;-3.50;99.90;;;;;;5037963;28;20043;-67
2024/01/09 08:54:36;;;;;;;7.35;3.67;;;-3.50;99.90;;;;;;5037928;28;20048;-67
2024/01/09 08:57:02;;;;;;;7.40;3.75;;;-3.50;99.90;;;;;;5054349;28;20063;-68
2024/01/09 08:59:28;;;;;;;7.20;3.40;;;-3.50;99.90;;;;;;5038021;28;20048;-67
2024/01/09 09:01:54;;;;;;;8.38;3.58;;;-3.40;99.90;;;;;;5037327;28;20136;-67
2024/01/09 09:04:19;;;;;;;6.70;3.42;;;-3.30;99.90;;;;;;5037532;28;20498;-67
2024/01/09 09:06:45;;;;;;;7.30;3.50;;;-3.10;99.90;;;;;;5037771;28;20048;-68
2024/01/09 09:09:11;;;;;;;8.68;4.38;;;-3.00;99.90;;;;;;5061583;28;20412;-68
2024/01/09 09:11:37;;;;;;;8.20;3.67;;;-3.00;99.90;;;;;;5058056;28;20043;-68
2024/01/09 09:14:03;;;;;;;8.05;2.90;;;-2.90;99.90;;;;;;5057778;28;20044;-68
2024/01/09 09:16:31;;;;;;;7.38;3.47;;;-2.90;99.90;;;;;;5057744;28;20173;-68
2024/01/09 09:18:58;;;;;;;7.18;3.30;;;-2.90;99.90;;;;;;5041597;28;20040;-69
2024/01/09 09:21:24;;;;;;;8.52;3.80;;;-2.90;99.90;;;;;;5074322;28;20040;-69
2024/01/09 09:23:49;;;;;;;8.13;3.80;;;-2.80;99.90;;;;;;5057963;28;20494;-69
2024/01/09 09:26:15;;;;;;;8.05;3.30;;;-2.70;99.90;;;;;;5074118;28;20093;-68
2024/01/09 09:28:43;;;;;;;8.30;3.80;;;-2.70;99.90;;;;;;5041378;28;20028;-69
2024/01/09 09:31:09;;;;;;;7.63;3.83;;;-2.60;99.90;;;;;;5074289;28;20074;-69
2024/01/09 09:33:35;;;;;;;6.93;3.30;;;-2.60;99.90;;;;;;5074401;28;20044;-69
2024/01/09 09:36:07;;;;;;;7.15;3.53;;;-2.50;99.90;;;;;;5074201;28;20443;-69
2024/01/09 09:38:33;;;;;;;;;;;-2.70;99.90;;;;;;5058369;28;20082;-69
2024/01/09 09:41:07;;;;;;;7.28;3.20;;;-2.70;99.90;;;;;;5091409;28;19920;-69
2024/01/09 09:43:37;;;;;;;7.80;3.40;;;-2.60;99.90;;;;;;5057339;28;20036;-69
2024/01/09 09:46:03;;;;;;;6.18;2.90;;;-2.50;99.90;;;;;;5074297;28;20483;-69
2024/01/09 09:48:31;;;;;;;6.32;2.67;;;-2.50;99.90;;;;;;5074530;28;20047;-69
2024/01/09 09:50:58;;;;;;;6.50;2.90;;;-2.50;99.90;;;;;;5057746;28;20044;-69
2024/01/09 09:53:27;;;;;;;6.85;3.30;;;-2.40;99.90;;;;;;5074259;28;20044;-69
2024/01/09 09:55:53;;;;;;;7.43;3.35;;;-2.50;99.90;;;;;;5057843;28;20097;-69
2024/01/09 09:58:19;;;;;;;6.40;2.80;;;-2.40;99.90;;;;;;5074291;28;20040;-69
2024/01/09 10:00:45;;;;;;;7.53;3.22;;;-2.40;99.80;;;;;;5074050;28;20126;-69
2024/01/09 10:03:11;;;;;;;7.05;3.13;;;-2.30;99.50;;;;;;5057466;28;20151;-69
2024/01/09 10:05:40;;;;;;;7.35;3.60;;;-2.40;99.80;;;;;;5060398;28;20036;-69
2024/01/09 10:08:10;;;;;;;7.82;3.40;;;-2.50;99.30;;;;;;5077525;28;20047;-69
2024/01/09 10:10:36;;;;;;;6.75;3.25;;;-2.40;99.50;;;;;;5077363;28;20511;-69
2024/01/09 10:13:03;;;;;;;7.90;4.55;;;-2.40;99.30;;;;;;5077685;28;20135;-69
2024/01/09 10:15:29;;;;;;;6.93;3.45;;;-2.50;98.80;;;;;;5077679;28;20040;-69
2024/01/09 10:17:59;;;;;;;6.47;2.90;;;-2.40;99.50;;;;;;5077422;28;20051;-69
2024/01/09 10:20:28;;;;;;;6.97;2.85;;;-2.30;99.90;;;;;;5077629;28;20052;-70
2024/01/09 10:22:54;;;;;;;6.22;2.97;;;-2.40;98.80;;;;;;5060663;28;20051;-69
2024/01/09 10:25:21;;;;;;;7.85;3.60;;;-2.20;98.60;;;;;;5077152;28;20036;-69
2024/01/09 10:27:47;;;;;;;7.18;3.28;;;-2.10;99.00;;;;;;5060971;28;20078;-69
2024/01/09 10:30:13;;;;;;;7.68;3.00;;;-2.20;98.70;;;;;;5077281;28;20067;-69
2024/01/09 10:32:40;;;;;;;6.78;3.33;;;-2.20;99.20;;;;;;5094163;28;20066;-70
2024/01/09 10:35:07;;;;;;;4.07;1.45;;;-2.30;97.60;;;;;;5060454;28;20181;-69
2024/01/09 10:37:34;;;;;;;6.10;3.10;;;-2.10;97.70;;;;;;5076921;28;20100;-69
2024/01/09 10:40:06;;;;;;;7.10;2.90;;;-2.00;98.00;;;;;;5043845;28;20044;-69
2024/01/09 10:42:43;;;;;;;;;;;-2.00;98.40;;;;;;5077792;28;20488;-69
2024/01/09 10:45:09;;;;;;;6.75;2.97;;;-2.00;98.30;;;;;;5093456;28;19920;-69
2024/01/09 10:47:36;;;;;;;7.75;2.92;;;-2.10;97.90;;;;;;5060394;28;20503;-69
2024/01/09 10:50:02;;;;;;;7.95;2.45;;;-2.10;98.30;;;;;;5043518;28;20047;-69
2024/01/09 10:52:29;;;;;;;4.72;1.83;;;-2.00;98.60;;;;;;5076803;28;20044;-69
2024/01/09 10:54:57;;;;;;;5.97;2.50;;;-1.80;97.10;;;;;;5043739;28;20075;-69
2024/01/09 10:57:23;;;;;;;5.05;2.25;;;-1.80;97.20;;;;;;5059986;28;20051;-69
2024/01/09 10:59:50;;;;;;;6.70;2.38;;;-1.80;97.30;;;;;;5043272;28;20082;-69
2024/01/09 11:02:21;;;;;;;6.22;2.90;;;-1.80;96.20;;;;;;5076371;28;20048;-69
2024/01/09 11:04:48;;;;;;;6.40;3.10;;;-1.90;96.40;;;;;;5059861;28;20366;-69
2024/01/09 11:07:15;;;;;;;5.20;2.42;;;-1.90;97.50;;;;;;5060104;28;20034;-69
2024/01/09 11:09:48;;;;;;;7.28;3.35;;;-1.90;96.70;;;;;;5060031;28;20098;-69
2024/01/09 11:12:20;;;;;;;6.47;3.00;;;-2.00;97.00;;;;;;5076554;28;20044;-69
2024/01/09 11:15:16;;;;;;;6.72;3.28;;;-1.90;97.40;;;;;;5076261;28;20040;-69
2024/01/09 11:17:46;;;;;;;7.38;3.35;;;-2.00;96.80;;;;;;5059968;28;20083;-69
2024/01/09 11:20:14;;;;;;;7.82;3.03;;;-1.90;97.10;;;;;;5076273;28;20067;-69
2024/01/09 11:22:40;;;;;;;6.20;3.03;;;-1.90;97.30;;;;;;5076095;28;20040;-69
2024/01/09 11:25:15;;;;;;;6.60;2.90;;;-1.90;97.00;;;;;;5076173;28;20085;-69
2024/01/09 11:27:43;;;;;;;7.80;2.95;;;-1.90;97.30;;;;;;5059457;28;20039;-69
2024/01/09 11:30:14;;;;;;;7.63;3.42;;;-2.00;96.50;;;;;;5076025;28;20233;-69
2024/01/09 11:32:40;;;;;;;5.15;2.08;;;-1.90;96.90;;;;;;5042992;28;20052;-69
2024/01/09 11:35:16;;;;;;;4.13;1.73;;;-1.90;97.70;;;;;;5075914;28;20076;-69
2024/01/09 11:37:47;;;;;;;7.72;4.20;;;-1.70;97.10;;;;;;5076168;28;20484;-69
2024/01/09 11:40:15;;;;;;;6.82;3.40;;;-1.70;96.90;;;;;;5059419;28;20472;-68
2024/01/09 11:42:45;;;;;;;7.10;3.20;;;-1.70;96.60;;;;;;5075743;28;20131;-68
2024/01/09 11:45:12;;;;;;;7.72;3.33;;;-1.70;96.20;;;;;;5075760;28;20036;-68
2024/01/09 11:47:42;;;;;;;7.35;3.60;;;-1.70;96.80;;;;;;5059345;28;20040;-68
2024/01/09 11:50:10;;;;;;;5.22;2.42;;;-1.80;96.80;;;;;;5076024;28;20484;-68
2024/01/09 11:52:37;;;;;;;7.32;3.20;;;-1.70;97.00;;;;;;5059006;28;20075;-68
2024/01/09 11:55:07;;;;;;;6.57;3.17;;;-1.60;97.00;;;;;;5075626;28;20044;-68
2024/01/09 11:57:38;;;;;;;5.38;2.30;;;-1.60;96.80;;;;;;5058671;28;20044;-68
2024/01/09 12:00:06;;;;;;;10.50;4.97;;;-1.50;96.10;;;;;;5075561;28;20087;-68
2024/01/09 12:02:38;;;;;;;7.45;3.40;;;-1.50;96.90;;;;;;5058693;28;20492;-68
2024/01/09 12:05:05;;;;;;;7.95;3.42;;;-1.50;96.40;;;;;;5075515;28;20101;-68
2024/01/09 12:07:39;;;;;;;7.05;3.20;;;-1.60;95.60;;;;;;5059189;28;20036;-67
2024/01/09 12:10:06;;;;;;;6.25;2.35;;;-1.60;95.90;;;;;;5075260;28;20044;-69
2024/01/09 12:12:32;;;;;;;6.38;3.22;;;-1.50;95.40;;;;;;5075208;28;20047;-69
2024/01/09 12:14:59;;;;;;;8.32;2.92;;;-1.50;96.20;;;;;;5075330;28;20044;-68
2024/01/09 12:17:33;;;;;;;4.20;1.75;;;-1.50;96.00;;;;;;5075244;28;20093;-69
2024/01/09 12:20:04;;;;;;;6.60;3.20;;;-1.40;95.30;;;;;;5058565;28;20105;-69
2024/01/09 12:22:35;;;;;;;6.75;3.30;;;-1.40;96.10;;;;;;5041918;28;20048;-69
2024/01/09 12:25:02;;;;;;;5.88;2.90;;;-1.40;95.50;;;;;;5075273;28;20044;-69
2024/01/09 12:27:28;;;;;;;7.38;3.63;;;-1.40;95.50;;;;;;5058101;28;20040;-69
2024/01/09 12:29:56;;;;;;;7.88;3.42;;;-1.40;95.20;;;;;;5075000;28;20079;-69
2024/01/09 12:32:22;;;;;;;7.15;3.25;;;-1.40;95.50;;;;;;5058167;28;20044;-69
2024/01/09 12:34:48;;;;;;;7.10;3.22;;;-1.40;94.80;;;;;;5058241;28;20054;-69
2024/01/09 12:37:15;;;;;;;5.85;2.95;;;-1.40;95.10;;;;;;5058299;28;20131;-68
2024/01/09 12:39:40;;;;;;;11.13;3.75;;;-1.30;94.70;;;;;;5058614;28;20048;-68
2024/01/09 12:42:12;;;;;;;6.18;3.40;;;-1.30;94.80;;;;;;5074800;28;20040;-68
2024/01/09 12:44:41;;;;;;;7.78;3.90;;;-1.30;94.40;;;;;;5074661;28;20094;-68